VEPTVNKT

Guest
Details From VEPT - PATNA
To VNKT - Kathmandu Tribhuvan Intl
Flight Number -
Tags generated
Created
Modified
Stats Distance 129 nm / 239 km
Max Altitude 14,600 ft / 4,450 m
Waypoints 4
Social Downloads 2
Likes 0
Share VATSIM

Download

Looking for another format? Having issues loading an existing format? Contact us
Advertisement - Login to hide

Notes

Basic altitude profile: - Ascent Rate: 2500ft/min - Ascent Speed: 250kts - Cruise Altitude: 35000ft - Cruise Speed: 420kts - Descent Rate: 1500ft/min - Descent Speed: 250kts Options: - Use NATs: yes - Use PACOTS: yes - Use low airways: yes - Use high airways: yes

Route

VEPT PPT G336 DODUD VNKT

ID Type Via Altitude Latitude Longitude Leg Dist Tot Dist Heading (true) Name
O VEPT APT - 0 ft / 0 m 25.59132˚ 85.08799˚ - 0 nm - PATNA
PPT VOR - 0 ft / 0 m 25.59042˚ 85.08992˚ 0 nm 0 nm 117° / 117° PATNA VOR-DME
DODUD FIX G336 (AWY-LO) 14,600 ft / 4,450 m 26.60033˚ 85.01436˚ 60 nm 60 nm 356° / 356° -
O VNKT APT - 0 ft / 0 m 27.69658˚ 85.35910˚ 68 nm 129 nm 16° / 16° Kathmandu Tribhuvan Intl

Altitude Profile

Advertisement - Login to hide

VEPT

Details ICAO VEPT (PAT)
Name PATNA
Region India
Timezone Asia/Kolkata (UTC+5.5)
Stats Elevation 170 ft / 52 m (AMSL)
Location 25.591317° 85.087990°
Runways 1
Magnetic Variation 0.248° E

METAR

VEPT 182230Z 00000KT 0500 R25/0500 FG NSC 11/11 Q1017 NOSIG

Decode

TAF

TAF VEPT 181100Z 1812/1918 28003KT 1800 BR FU SCT100 BECMG 1818/1820 00000KT 1200 BR NSC BECMG 1823/1901 0500 FG VV/// BECMG 1904/1906 24003KT 1100 BR SCT250 BECMG 1908/1910 00000KT 1800 FU BECMG 1915/1917 1200 BR NSC

Decode

Departure Runways

ID Width Length Bearing (true) Bearing (mag) Surface Threshold Offset Overrun Length
07 148 ft / 45 m 6,411 ft / 1,954 m 68.24° 67.99° Asphalt 920 ft / 280 m 975 ft / 297 m
25 148 ft / 45 m 6,411 ft / 1,954 m 248.25° 248.00° Asphalt 440 ft / 134 m 310 ft / 94 m

VNKT

Details ICAO VNKT (KTM)
Name Kathmandu Tribhuvan Intl
Region Nepal
Timezone Asia/Kathmandu (UTC+5.8)
Stats Elevation 4,390 ft / 1,338 m (AMSL)
Location 27.696583° 85.359100°
Runways 1
Magnetic Variation 0.493° E

METAR

VNKT 182150Z 00000KT 4000 BR FEW010 07/06 Q1022 NOSIG

Decode

TAF

TAF VNKT 181100Z 1812/1912 26003KT 6000 FEW015 BECMG 1814/1815 VRB02KT 4000 BR FEW015 BECMG 1900/1902 3000 BR FEW010 SCT250 PROB40 1801/1803 1000 BR FEW010 SCT250 BECMG 1804/1805 13003KT 4000 HZ FEW015 SCT250 BECMG 1807/1809 26004KT 7000 FEW015 SCT100

Decode

Destination Runways

ID Width Length Bearing (true) Bearing (mag) Surface Threshold Offset Overrun Length
02 148 ft / 45 m 10,017 ft / 3,053 m 21.50° 21.01° Asphalt 0 ft / 0 m 0 ft / 0 m
20 148 ft / 45 m 10,017 ft / 3,053 m 201.51° 201.02° Asphalt 400 ft / 122 m 0 ft / 0 m

Popular Alternatives